createdAt,value
2022-11-22T00:00:01.761Z,2.10
2022-11-22T00:05:05.268Z,2.10
2022-11-22T00:10:09.943Z,2.10
2022-11-22T00:15:14.441Z,2.00
2022-11-22T00:20:17.771Z,1.90
2022-11-22T00:25:20.658Z,1.90
2022-11-22T00:30:24.808Z,1.90
2022-11-22T00:35:27.540Z,1.80
2022-11-22T00:40:30.305Z,1.70
2022-11-22T00:45:34.406Z,1.80
2022-11-22T00:50:37.229Z,1.90
2022-11-22T00:55:40.055Z,2.00
2022-11-22T01:00:44.656Z,2.10
2022-11-22T01:05:48.014Z,2.10
2022-11-22T01:10:56.750Z,2.10
2022-11-22T01:16:02.334Z,2.00
2022-11-22T01:21:05.890Z,2.00
2022-11-22T01:26:09.615Z,1.90
2022-11-22T01:31:13.694Z,1.80
2022-11-22T01:36:16.548Z,1.80
2022-11-22T01:41:19.401Z,1.70
2022-11-22T01:46:33.443Z,1.70
2022-11-22T01:51:39.657Z,1.60
2022-11-22T01:56:47.084Z,1.60
2022-11-22T02:01:51.775Z,1.60
2022-11-22T02:07:00.756Z,1.50
2022-11-22T02:12:05.997Z,1.40
2022-11-22T02:17:10.131Z,1.20
2022-11-22T02:22:24.796Z,1.20
2022-11-22T02:27:29.036Z,1.20
2022-11-22T02:32:31.806Z,1.30
2022-11-22T02:37:34.743Z,1.40
2022-11-22T02:42:38.998Z,1.50
2022-11-22T02:47:41.732Z,1.60
2022-11-22T02:52:44.478Z,1.60
2022-11-22T02:57:48.620Z,1.60
2022-11-22T03:02:51.609Z,1.50
2022-11-22T03:07:54.527Z,1.30
2022-11-22T03:12:59.607Z,1.30
2022-11-22T03:18:04.160Z,1.30
2022-11-22T03:23:06.935Z,1.30
2022-11-22T03:28:11.039Z,1.50
2022-11-22T03:33:13.848Z,1.50
2022-11-22T03:38:16.645Z,1.70
2022-11-22T03:43:21.812Z,1.70
2022-11-22T03:48:24.611Z,1.80
2022-11-22T03:53:27.349Z,1.80
2022-11-22T03:58:31.474Z,1.90
2022-11-22T04:03:34.270Z,2.00
2022-11-22T04:08:37.053Z,2.10
2022-11-22T04:13:58.480Z,2.30
2022-11-22T04:19:01.211Z,2.40
2022-11-22T04:24:23.081Z,2.50
2022-11-22T04:29:27.351Z,2.70
2022-11-22T04:34:30.271Z,2.80
2022-11-22T04:39:33.315Z,2.80
2022-11-22T04:44:43.187Z,2.70
2022-11-22T04:49:45.936Z,2.80
2022-11-22T04:54:48.678Z,2.90
2022-11-22T04:59:52.762Z,2.90
2022-11-22T05:04:55.589Z,2.90
2022-11-22T05:09:58.357Z,3.00
2022-11-22T05:15:02.447Z,3.00
2022-11-22T05:20:05.979Z,3.00
2022-11-22T05:25:11.792Z,3.10
2022-11-22T05:30:16.068Z,3.10
2022-11-22T05:35:18.850Z,3.10
2022-11-22T05:40:21.658Z,3.10
2022-11-22T05:45:26.002Z,3.10
2022-11-22T05:50:28.738Z,3.10
2022-11-22T05:55:32.131Z,3.10
2022-11-22T06:00:36.283Z,3.10
2022-11-22T06:05:39.099Z,3.10
2022-11-22T06:10:41.821Z,3.10
2022-11-22T06:15:45.922Z,3.20
2022-11-22T06:20:55.423Z,3.20
2022-11-22T06:25:59.766Z,3.20
2022-11-22T06:31:05.263Z,3.30
2022-11-22T06:36:10.123Z,3.30
2022-11-22T06:41:17.953Z,3.30
2022-11-22T06:46:24.175Z,3.30
2022-11-22T06:51:29.785Z,3.30
2022-11-22T06:56:34.112Z,3.30
2022-11-22T07:01:38.919Z,3.30
2022-11-22T07:06:44.042Z,3.40
2022-11-22T07:11:46.814Z,3.50
2022-11-22T07:16:51.016Z,3.60
2022-11-22T07:21:55.400Z,3.70
2022-11-22T07:26:58.185Z,3.70
2022-11-22T07:32:02.273Z,3.90
2022-11-22T07:37:09.024Z,4.00
2022-11-22T07:42:13.053Z,4.00
2022-11-22T07:47:22.570Z,4.00
2022-11-22T07:52:25.736Z,4.00
2022-11-22T07:57:28.475Z,4.00
2022-11-22T08:02:38.861Z,4.10
2022-11-22T08:07:47.039Z,4.10
2022-11-22T08:12:52.034Z,4.20
2022-11-22T08:17:56.174Z,4.30
2022-11-22T08:22:58.905Z,4.30
2022-11-22T08:28:04.624Z,4.50
2022-11-22T08:33:08.768Z,4.70
2022-11-22T08:38:11.514Z,4.90
2022-11-22T08:43:16.382Z,5.20
2022-11-22T08:48:22.426Z,5.60
2022-11-22T08:53:26.081Z,5.60
2022-11-22T08:58:30.452Z,5.40
2022-11-22T09:03:34.845Z,5.60
2022-11-22T09:08:40.485Z,5.40
2022-11-22T09:13:47.088Z,5.30
2022-11-22T09:18:52.473Z,5.60
2022-11-22T09:23:55.287Z,5.40
2022-11-22T09:28:58.478Z,5.50
2022-11-22T09:34:02.542Z,5.50
2022-11-22T09:39:05.369Z,5.80
2022-11-22T09:44:16.034Z,6.20
2022-11-22T09:49:30.407Z,6.50
2022-11-22T09:54:40.400Z,6.90
2022-11-22T09:59:46.959Z,7.40
2022-11-22T10:04:56.363Z,8.70
2022-11-22T10:10:05.691Z,10.40
2022-11-22T10:15:18.703Z,10.60
2022-11-22T10:20:24.858Z,10.60
2022-11-22T10:25:39.165Z,10.20
2022-11-22T10:30:49.196Z,9.10
2022-11-22T10:36:08.534Z,9.00
2022-11-22T10:41:27.003Z,8.90
2022-11-22T10:46:39.247Z,9.00
2022-11-22T10:51:52.085Z,8.80
2022-11-22T10:57:00.774Z,8.20
2022-11-22T11:02:17.252Z,8.50
2022-11-22T11:07:24.378Z,9.20
2022-11-22T11:12:35.819Z,9.70
2022-11-22T11:17:39.229Z,10.10
2022-11-22T11:28:09.436Z,7.70
2022-11-22T11:33:34.863Z,7.20
2022-11-22T11:38:51.664Z,6.80
2022-11-22T11:43:56.031Z,6.90
2022-11-22T11:49:11.474Z,6.70
2022-11-22T11:54:19.613Z,6.50
2022-11-22T11:59:26.516Z,6.40
2022-11-22T12:04:33.163Z,6.30
2022-11-22T12:09:45.250Z,6.10
2022-11-22T12:15:10.884Z,6.00
2022-11-22T12:20:19.293Z,5.70
2022-11-22T12:25:32.888Z,5.70
2022-11-22T12:30:38.632Z,5.70
2022-11-22T12:35:44.824Z,5.70
2022-11-22T12:40:53.795Z,5.80
2022-11-22T12:46:01.219Z,5.80
2022-11-22T12:51:08.297Z,5.80
2022-11-22T12:56:26.240Z,5.80
2022-11-22T13:01:45.768Z,5.70
2022-11-22T13:06:58.156Z,5.80
2022-11-22T13:12:06.321Z,5.90
2022-11-22T13:17:09.855Z,5.80
2022-11-22T13:22:20.903Z,5.80
2022-11-22T13:27:30.651Z,5.70
2022-11-22T13:32:35.944Z,5.70
2022-11-22T13:37:41.324Z,5.80
2022-11-22T13:42:45.480Z,5.90
2022-11-22T13:47:48.302Z,5.80
2022-11-22T13:52:54.487Z,5.70
2022-11-22T13:58:52.347Z,5.70
2022-11-22T14:03:55.442Z,5.70
2022-11-22T14:09:27.627Z,5.50
2022-11-22T14:14:40.242Z,5.50
2022-11-22T14:19:57.237Z,5.40
2022-11-22T14:25:17.543Z,5.40
2022-11-22T14:30:23.006Z,5.30
2022-11-22T14:35:32.287Z,5.40
2022-11-22T14:40:40.184Z,5.40
2022-11-22T14:45:50.416Z,5.30
2022-11-22T14:50:58.326Z,5.30
2022-11-22T14:56:07.438Z,5.20
2022-11-22T15:01:39.216Z,5.20
2022-11-22T15:09:11.234Z,5.10
2022-11-22T15:12:38.696Z,5.10
2022-11-22T16:01:19.067Z,5.10
2022-11-22T16:06:27.115Z,5.10
2022-11-22T16:11:32.947Z,5.10
2022-11-22T16:16:35.792Z,5.10
2022-11-22T16:21:39.863Z,5.10
2022-11-22T16:26:50.270Z,5.10
2022-11-22T16:32:00.403Z,5.10
2022-11-22T16:37:27.851Z,5.10
2022-11-22T16:42:39.263Z,5.10
2022-11-22T16:47:42.033Z,5.10
2022-11-22T16:52:46.938Z,5.10
2022-11-22T16:57:49.729Z,5.10
2022-11-22T17:02:52.480Z,5.10
2022-11-22T17:07:58.116Z,5.10
2022-11-22T17:13:00.900Z,5.10
2022-11-22T17:18:03.670Z,5.00
2022-11-22T17:23:13.810Z,5.00
2022-11-22T17:28:21.547Z,5.00
2022-11-22T17:33:32.188Z,4.90
2022-11-22T17:38:48.176Z,4.90
2022-11-22T17:43:51.625Z,4.90
2022-11-22T17:48:56.418Z,4.90
2022-11-22T17:54:03.647Z,4.90
2022-11-22T17:59:06.612Z,4.90
2022-11-22T18:04:09.379Z,5.00
2022-11-22T18:09:13.626Z,5.00
2022-11-22T18:14:16.355Z,4.90
2022-11-22T18:19:19.116Z,4.80
2022-11-22T18:24:23.215Z,4.90
2022-11-22T18:29:42.864Z,4.90
2022-11-22T18:34:46.090Z,4.80
2022-11-22T18:39:50.269Z,4.80
2022-11-22T18:44:53.100Z,4.70
2022-11-22T18:49:55.917Z,4.80
2022-11-22T18:55:00.032Z,4.80
2022-11-22T19:00:02.970Z,4.80
2022-11-22T19:05:06.476Z,4.70
2022-11-22T19:10:11.430Z,4.70
2022-11-22T19:33:14.475Z,4.60
2022-11-22T19:38:18.577Z,4.60
2022-11-22T19:55:47.621Z,4.50
2022-11-22T20:00:52.426Z,4.40
2022-11-22T20:06:01.322Z,4.40
2022-11-22T20:11:06.523Z,4.40
2022-11-22T20:16:15.433Z,4.30
2022-11-22T20:21:22.473Z,4.40
2022-11-22T20:26:27.616Z,4.30
2022-11-22T20:31:34.651Z,4.20
2022-11-22T20:36:37.937Z,4.20
2022-11-22T20:41:41.389Z,4.20
2022-11-22T20:46:45.443Z,4.20
2022-11-22T20:51:48.242Z,4.10
2022-11-22T20:56:51.052Z,4.10
2022-11-22T21:01:57.674Z,4.10
2022-11-22T21:07:02.488Z,4.00
2022-11-22T21:12:06.172Z,4.00
2022-11-22T21:17:35.875Z,4.00
2022-11-22T21:22:34.373Z,4.10
2022-11-22T21:27:39.734Z,4.10
2022-11-22T21:32:45.674Z,4.10
2022-11-22T21:37:48.696Z,4.20
2022-11-22T21:42:52.417Z,4.20
2022-11-22T21:47:58.141Z,4.20
2022-11-22T22:17:26.272Z,4.30
2022-11-22T22:22:28.984Z,4.40
2022-11-22T22:27:32.093Z,4.30
2022-11-22T22:32:36.983Z,4.30
2022-11-22T22:37:42.006Z,4.30
2022-11-22T22:42:44.782Z,4.50
2022-11-22T22:47:48.844Z,4.50
2022-11-22T22:52:51.631Z,4.50
2022-11-22T22:57:54.638Z,4.50
2022-11-22T23:02:58.760Z,4.50
2022-11-22T23:08:05.043Z,4.50
2022-11-22T23:13:07.849Z,4.50
2022-11-22T23:18:11.946Z,4.40
2022-11-22T23:23:14.715Z,4.40
2022-11-22T23:28:17.560Z,4.40
2022-11-22T23:33:21.690Z,4.40
2022-11-22T23:38:24.410Z,4.40
2022-11-22T23:43:27.457Z,4.40
2022-11-22T23:48:31.737Z,4.30
2022-11-22T23:53:34.509Z,4.20
2022-11-22T23:58:37.385Z,4.20
